Time;durP1;ratioP1;P1;durP2;ratioP2;P2;SDS_P1;SDS_P2;PMS_P1;PMS_P2;Temp;Humidity;BMP_temperature;BMP_pressure;BME280_temperature;BME280_humidity;BME280_pressure;Samples;Min_cycle;Max_cycle;Signal;HPM_P1;HPM_P2
2023/09/28 00:02:29;;;;;;;14.02;4.78;;;;;;;18.17;49.97;100314.06;7763109;32;39005;-81
2023/09/28 00:06:45;;;;;;;10.23;4.68;;;;;;;18.32;49.58;100310.16;7763628;32;37728;-80
2023/09/28 00:11:01;;;;;;;11.63;4.55;;;;;;;18.16;49.94;100304.19;7763471;32;39799;-81
2023/09/28 00:15:21;;;;;;;11.15;4.20;;;;;;;18.11;49.80;100308.97;7763221;32;40947;-81
2023/09/28 00:19:37;;;;;;;7.68;4.05;;;;;;;18.08;50.18;100312.38;7763290;32;38046;-81
2023/09/28 00:23:54;;;;;;;7.78;4.93;;;;;;;17.90;50.61;100306.69;7765743;32;37029;-81
2023/09/28 00:28:11;;;;;;;9.55;4.78;;;;;;;17.72;51.66;100308.37;7741631;32;40092;-79
2023/09/28 00:32:27;;;;;;;8.27;4.53;;;;;;;17.98;50.85;100308.69;7739753;32;40638;-81
2023/09/28 00:36:43;;;;;;;13.45;5.43;;;;;;;17.72;51.51;100304.81;7739507;32;37757;-81
2023/09/28 00:41:00;;;;;;;10.40;5.10;;;;;;;17.62;52.06;100309.41;7739694;32;38279;-81
2023/09/28 00:45:16;;;;;;;8.88;4.95;;;;;;;17.60;52.14;100311.66;7744956;32;40019;-82
2023/09/28 00:49:32;;;;;;;10.50;4.75;;;;;;;17.58;52.15;100311.13;7765409;32;40842;-82
2023/09/28 00:53:49;;;;;;;8.60;4.55;;;;;;;17.65;52.08;100311.53;7766398;32;38365;-81
2023/09/28 00:58:10;;;;;;;10.73;4.57;;;;;;;17.76;52.05;100305.81;7766489;32;37001;-81
2023/09/28 01:02:27;;;;;;;11.45;5.45;;;;;;;17.76;52.32;100300.31;7749991;32;40133;-82
2023/09/28 01:06:45;;;;;;;12.63;4.82;;;;;;;17.67;52.77;100302.16;7740034;32;40463;-82
2023/09/28 01:11:03;;;;;;;11.43;4.40;;;;;;;17.72;52.79;100300.12;7739385;32;38524;-82
2023/09/28 01:15:21;;;;;;;10.52;5.00;;;;;;;17.63;53.47;100302.78;7739242;32;37897;-82
2023/09/28 01:19:38;;;;;;;11.48;5.40;;;;;;;17.92;52.85;100292.56;7739159;32;40270;-80
2023/09/28 01:23:55;;;;;;;9.23;4.62;;;;;;;17.95;52.94;100292.75;7739110;32;40018;-82
2023/09/28 01:28:12;;;;;;;10.43;5.05;;;;;;;18.18;52.38;100295.59;7765715;32;40565;-81
2023/09/28 01:32:28;;;;;;;11.70;4.85;;;;;;;18.22;52.43;100296.59;7757889;32;37036;-82
2023/09/28 01:36:45;;;;;;;9.35;4.70;;;;;;;18.22;52.60;100288.31;7738249;32;39470;-82
2023/09/28 01:41:01;;;;;;;13.25;4.90;;;;;;;18.17;52.77;100289.22;7738929;32;39723;-81
2023/09/28 01:45:18;;;;;;;8.52;4.28;;;;;;;18.15;52.89;100287.94;7738781;32;38128;-82
2023/09/28 01:49:34;;;;;;;14.68;5.35;;;;;;;18.30;52.42;100282.06;7738878;32;37075;-83
2023/09/28 01:53:50;;;;;;;12.10;5.03;;;;;;;18.11;52.91;100292.41;7738778;32;39336;-81
2023/09/28 01:58:07;;;;;;;9.65;4.90;;;;;;;17.79;53.79;100299.69;7738695;32;40516;-82
2023/09/28 02:02:24;;;;;;;8.60;4.47;;;;;;;17.67;54.07;100302.97;7755899;32;37924;-83
2023/09/28 02:06:40;;;;;;;12.75;5.50;;;;;;;17.49;54.53;100306.62;7765622;32;38109;-82
2023/09/28 02:10:56;;;;;;;13.98;5.60;;;;;;;17.50;54.37;100303.56;7765577;32;40052;-81
2023/09/28 02:15:16;;;;;;;10.07;4.90;;;;;;;17.66;54.10;100301.34;7765371;32;40544;-82
2023/09/28 02:19:32;;;;;;;8.38;5.00;;;;;;;17.73;54.18;100300.91;7765487;32;38060;-82
2023/09/28 02:23:48;;;;;;;10.15;5.57;;;;;;;17.63;54.43;100304.72;7762156;32;37910;-82
2023/09/28 02:28:05;;;;;;;14.52;5.65;;;;;;;17.61;54.36;100299.50;7738233;32;40124;-82
2023/09/28 02:32:21;;;;;;;10.93;5.00;;;;;;;17.61;54.76;100305.03;7738314;32;40699;-83
2023/09/28 02:36:37;;;;;;;13.55;5.47;;;;;;;18.01;53.75;100291.53;7738123;32;38519;-80
2023/09/28 02:40:54;;;;;;;10.73;5.45;;;;;;;18.02;53.73;100297.84;7738572;32;37925;-79
2023/09/28 02:45:14;;;;;;;11.30;5.40;;;;;;;17.98;53.77;100305.13;7737886;32;40062;-81
2023/09/28 02:49:30;;;;;;;13.20;5.30;;;;;;;17.98;53.74;100308.69;7738097;32;39872;-82
2023/09/28 02:53:47;;;;;;;9.32;4.90;;;;;;;18.05;53.44;100294.47;7737987;32;37901;-82
2023/09/28 02:58:04;;;;;;;8.90;5.45;;;;;;;17.78;54.01;100300.81;7737950;32;37782;-82
2023/09/28 03:02:20;;;;;;;10.07;5.28;;;;;;;17.98;53.31;100305.13;7756160;32;40062;-82
2023/09/28 03:06:37;;;;;;;8.80;4.90;;;;;;;17.77;53.92;100304.72;7765101;32;40188;-81
2023/09/28 03:10:53;;;;;;;12.52;4.95;;;;;;;17.69;54.46;100310.94;7764814;32;38022;-81
2023/09/28 03:15:10;;;;;;;10.00;5.22;;;;;;;17.57;54.68;100303.97;7764721;32;37922;-82
2023/09/28 03:19:27;;;;;;;10.75;5.45;;;;;;;17.68;54.28;100301.87;7752899;32;40090;-82
2023/09/28 03:23:45;;;;;;;9.50;4.97;;;;;;;17.46;54.77;100299.81;7737260;32;40692;-81
2023/09/28 03:28:02;;;;;;;9.95;5.45;;;;;;;17.62;54.25;100306.62;7737366;32;37862;-82
2023/09/28 03:32:18;;;;;;;10.77;4.87;;;;;;;17.67;53.90;100302.16;7736473;32;37346;-82
2023/09/28 03:36:34;;;;;;;11.82;4.95;;;;;;;17.52;54.20;100317.88;7737221;32;40306;-82
2023/09/28 03:40:51;;;;;;;10.70;5.43;;;;;;;17.37;54.61;100309.91;7737254;32;40742;-81
2023/09/28 03:45:09;;;;;;;7.82;4.90;;;;;;;17.18;55.10;100319.06;7737225;32;37927;-81
2023/09/28 03:49:25;;;;;;;13.35;5.50;;;;;;;17.22;55.00;100319.28;7737189;32;37680;-82
2023/09/28 03:53:42;;;;;;;10.20;5.15;;;;;;;17.45;54.39;100322.97;7737031;32;39366;-81
2023/09/28 03:58:01;;;;;;;10.30;5.68;;;;;;;17.48;54.45;100329.81;7738260;32;40864;-81
2023/09/28 04:02:18;;;;;;;11.35;5.95;;;;;;;17.31;55.00;100327.66;7759422;32;38003;-83
2023/09/28 04:06:34;;;;;;;15.05;5.87;;;;;;;17.50;54.38;100324.81;7767422;32;37136;-83
2023/09/28 04:10:50;;;;;;;12.85;5.55;;;;;;;17.12;55.44;100331.28;7758445;32;40143;-82
2023/09/28 04:15:07;;;;;;;10.10;5.18;;;;;;;17.16;55.15;100321.31;7739932;32;39994;-82
2023/09/28 04:19:24;;;;;;;17.58;5.35;;;;;;;16.95;55.59;100322.78;7740033;32;38721;-82
2023/09/28 04:23:40;;;;;;;10.80;5.10;;;;;;;17.01;55.42;100324.34;7739889;32;37940;-83
2023/09/28 04:27:56;;;;;;;12.07;5.47;;;;;;;17.05;55.41;100325.34;7739687;32;40123;-82
2023/09/28 04:32:13;;;;;;;11.50;5.55;;;;;;;16.93;56.01;100327.78;7740604;32;40649;-82
2023/09/28 04:36:29;;;;;;;14.05;5.55;;;;;;;16.96;55.93;100329.94;7739645;32;38569;-82
2023/09/28 04:40:46;;;;;;;11.57;5.78;;;;;;;17.08;55.59;100324.75;7739686;32;37238;-82
2023/09/28 04:45:02;;;;;;;8.93;5.57;;;;;;;17.09;55.58;100334.63;7739653;32;39287;-82
2023/09/28 04:49:19;;;;;;;11.35;5.60;;;;;;;17.12;55.66;100336.81;7739585;32;39605;-82
2023/09/28 04:53:36;;;;;;;12.77;5.68;;;;;;;17.10;55.48;100330.78;7739392;32;38010;-82
2023/09/28 04:57:53;;;;;;;11.65;5.62;;;;;;;17.17;55.36;100333.94;7739274;32;38078;-83
2023/09/28 05:02:09;;;;;;;10.75;5.78;;;;;;;17.10;56.06;100341.78;7752557;32;39839;-82
2023/09/28 05:06:26;;;;;;;11.57;6.05;;;;;;;17.23;55.43;100330.00;7765162;32;40910;-82
2023/09/28 05:10:43;;;;;;;16.58;6.00;;;;;;;17.18;55.59;100332.03;7742507;32;38231;-66
2023/09/28 05:14:59;;;;;;;9.45;5.18;;;;;;;17.17;56.04;100330.38;7739322;32;36868;-80
2023/09/28 05:19:15;;;;;;;12.52;5.47;;;;;;;17.29;56.59;100335.41;7765995;32;39014;-82
2023/09/28 05:23:31;;;;;;;13.25;5.45;;;;;;;17.48;55.14;100330.62;7766156;32;39882;-82
2023/09/28 05:27:48;;;;;;;12.57;5.28;;;;;;;17.65;54.48;100335.56;7765966;32;38690;-81
2023/09/28 05:32:05;;;;;;;12.05;5.28;;;;;;;17.67;54.55;100340.75;7751513;32;36949;-82
2023/09/28 05:36:21;;;;;;;12.27;4.85;;;;;;;17.74;54.30;100341.97;7738851;32;40192;-71
2023/09/28 05:40:41;;;;;;;12.77;5.62;;;;;;;17.76;54.05;100348.00;7738967;32;39966;-65
2023/09/28 05:44:57;;;;;;;13.00;5.32;;;;;;;17.98;54.38;100343.75;7738835;32;37786;-65
2023/09/28 05:49:13;;;;;;;12.27;5.85;;;;;;;18.20;54.26;100343.00;7738768;32;37651;-65
2023/09/28 05:53:29;;;;;;;9.02;5.20;;;;;;;17.71;57.46;100352.81;7738768;32;39939;-79
2023/09/28 05:57:46;;;;;;;16.48;6.43;;;;;;;17.93;57.02;100354.88;7742380;32;40869;-79
2023/09/28 06:02:03;;;;;;;12.68;5.55;;;;;;;17.67;58.23;100357.31;7745848;32;38104;-80
2023/09/28 06:06:23;;;;;;;12.68;5.10;;;;;;;17.49;58.78;100351.56;7749472;32;37425;-78
2023/09/28 06:10:40;;;;;;;11.95;5.78;;;;;;;17.76;58.01;100363.72;7744727;32;39180;-78
2023/09/28 06:14:56;;;;;;;13.65;5.40;;;;;;;17.74;57.70;100355.75;7737655;32;39965;-79
2023/09/28 06:19:13;;;;;;;15.65;5.87;;;;;;;18.08;56.18;100356.50;7746044;32;38683;-77
2023/09/28 06:23:30;;;;;;;10.02;5.03;;;;;;;18.48;54.85;100354.78;7759611;32;37339;-79
2023/09/28 06:27:47;;;;;;;20.67;7.80;;;;;;;18.74;53.30;100357.75;7758786;32;40014;-78
2023/09/28 06:32:04;;;;;;;20.88;8.02;;;;;;;18.87;53.56;100356.09;7760205;32;40899;-78
2023/09/28 06:36:21;;;;;;;10.77;5.20;;;;;;;19.03;54.10;100359.31;7764640;32;38667;-67
2023/09/28 06:40:55;;;;;;;12.25;5.20;;;;;;;19.23;53.00;100368.19;7746175;32;37181;-80
2023/09/28 06:45:12;;;;;;;12.55;5.05;;;;;;;19.68;51.72;100368.94;7735092;32;39396;-81
2023/09/28 06:49:28;;;;;;;9.88;4.95;;;;;;;19.89;50.25;100374.72;7738223;32;40206;-82
2023/09/28 06:53:45;;;;;;;13.00;5.00;;;;;;;20.20;49.70;100365.53;7738079;32;38683;-82
2023/09/28 06:58:06;;;;;;;15.15;4.50;;;;;;;20.40;49.26;100361.34;7737935;32;36816;-81
2023/09/28 07:02:22;;;;;;;9.52;4.78;;;;;;;20.64;48.55;100362.84;7738706;32;40078;-82
2023/09/28 07:06:38;;;;;;;14.85;4.85;;;;;;;20.89;48.43;100361.22;7737864;32;40057;-82
2023/09/28 07:10:54;;;;;;;10.75;4.62;;;;;;;21.14;47.99;100367.84;7739548;32;38931;-79
2023/09/28 07:15:11;;;;;;;12.85;5.18;;;;;;;21.25;47.47;100373.88;7737925;32;37887;-81
2023/09/28 07:19:27;;;;;;;12.45;4.70;;;;;;;21.24;49.52;100377.78;7755852;32;39118;-80
2023/09/28 07:23:43;;;;;;;11.95;5.28;;;;;;;21.52;47.01;100375.44;7764258;32;40994;-81
2023/09/28 07:28:00;;;;;;;12.88;4.75;;;;;;;21.92;47.63;100374.28;7764455;32;39127;-82
2023/09/28 07:32:16;;;;;;;10.35;4.72;;;;;;;21.98;46.43;100384.06;7763355;32;37912;-65
2023/09/28 07:36:33;;;;;;;13.10;4.95;;;;;;;22.36;44.33;100380.44;7764239;32;37830;-66
2023/09/28 07:40:49;;;;;;;9.68;4.53;;;;;;;22.63;44.24;100381.91;7764177;32;40530;-67
2023/09/28 07:45:06;;;;;;;8.15;4.57;;;;;;;22.99;42.03;100382.38;7763915;32;38652;-66
2023/09/28 07:49:22;;;;;;;9.52;4.60;;;;;;;22.95;42.27;100384.25;7763901;32;38054;-67
2023/09/28 07:53:39;;;;;;;12.68;5.07;;;;;;;23.42;41.41;100386.72;7756256;32;39395;-67
2023/09/28 07:57:55;;;;;;;9.98;4.70;;;;;;;22.87;41.68;100395.09;7758938;32;40692;-67
2023/09/28 08:02:31;;;;;;;8.55;4.20;;;;;;;23.55;40.65;100385.59;7741416;32;39317;-67
2023/09/28 08:06:48;;;;;;;12.77;4.40;;;;;;;23.81;40.00;100390.88;7758258;32;37055;-66
2023/09/28 08:11:05;;;;;;;8.02;4.37;;;;;;;23.71;40.21;100388.53;7736549;32;39486;-66
2023/09/28 08:15:22;;;;;;;12.45;4.55;;;;;;;24.05;39.34;100388.47;7756943;32;39868;-67
2023/09/28 08:19:51;;;;;;;10.48;4.32;;;;;;;23.65;39.78;100389.13;7763178;32;38041;-69
2023/09/28 08:24:10;;;;;;;9.70;4.78;;;;;;;24.29;39.64;100388.44;7761235;32;37120;-67
2023/09/28 08:28:26;;;;;;;9.77;4.35;;;;;;;24.79;38.37;100388.38;7763165;32;39340;-68
2023/09/28 08:32:42;;;;;;;10.77;4.00;;;;;;;24.86;38.19;100383.78;7762962;32;40105;-67
2023/09/28 08:36:59;;;;;;;8.85;4.65;;;;;;;24.83;37.80;100383.69;7762717;32;37984;-67
2023/09/28 08:41:19;;;;;;;8.95;4.37;;;;;;;24.98;37.41;100376.56;7762819;32;36899;-68
2023/09/28 08:45:38;;;;;;;10.95;4.75;;;;;;;25.20;36.92;100370.41;7766109;32;39281;-67
2023/09/28 08:49:56;;;;;;;9.55;4.37;;;;;;;25.29;36.86;100368.28;7766418;32;40841;-83
2023/09/28 08:54:13;;;;;;;9.43;5.03;;;;;;;25.34;36.88;100372.00;7752603;32;38935;-83
2023/09/28 08:58:33;;;;;;;10.85;4.65;;;;;;;25.53;36.99;100371.28;7765792;32;37067;-83
2023/09/28 09:02:52;;;;;;;11.65;4.30;;;;;;;25.86;36.24;100374.50;7766636;32;39276;-82
2023/09/28 09:07:10;;;;;;;10.40;4.65;;;;;;;26.17;35.65;100372.87;7766467;32;40754;-82
2023/09/28 09:11:31;;;;;;;10.90;4.37;;;;;;;26.15;35.40;100368.84;7763614;32;38819;-69
2023/09/28 09:15:49;;;;;;;10.10;4.80;;;;;;;26.34;33.90;100368.06;7765986;32;36944;-70
2023/09/28 09:20:08;;;;;;;8.93;4.05;;;;;;;26.58;33.31;100359.41;7766305;32;38374;-82
2023/09/28 09:24:26;;;;;;;12.13;4.18;;;;;;;26.87;33.82;100360.06;7764894;32;40851;-81
2023/09/28 09:28:46;;;;;;;13.45;4.40;;;;;;;26.73;33.23;100366.16;7763805;32;38693;-82
2023/09/28 09:33:04;;;;;;;10.10;4.25;;;;;;;27.41;32.99;100352.69;7757716;32;37950;-76
2023/09/28 09:37:20;;;;;;;7.70;4.28;;;;;;;27.76;32.48;100354.47;7742517;32;38347;-83
2023/09/28 09:41:49;;;;;;;9.55;4.30;;;;;;;27.40;32.63;100355.84;7738526;32;39940;-84
2023/09/28 09:46:09;;;;;;;9.52;4.55;;;;;;;27.61;31.61;100347.00;7755583;32;38541;-84
2023/09/28 09:50:28;;;;;;;14.65;4.82;;;;;;;27.68;32.78;100350.75;7764054;32;37731;-81
2023/09/28 09:54:46;;;;;;;12.02;5.15;;;;;;;28.29;31.59;100343.28;7764581;32;39113;-81
2023/09/28 09:59:05;;;;;;;11.05;4.55;;;;;;;28.33;30.87;100337.72;7764337;32;39845;-80
2023/09/28 10:03:22;;;;;;;11.18;4.45;;;;;;;27.85;30.83;100337.41;7765467;32;38746;-79
2023/09/28 10:07:49;;;;;;;7.65;4.20;;;;;;;28.20;31.21;100334.38;7763213;32;37683;-82
2023/09/28 10:12:08;;;;;;;7.95;4.20;;;;;;;28.29;29.51;100332.06;7764819;32;40135;-83
2023/09/28 10:16:26;;;;;;;13.35;4.57;;;;;;;28.60;30.21;100334.91;7764836;32;39921;-82
2023/09/28 10:20:42;;;;;;;7.93;4.10;;;;;;;28.79;30.17;100334.75;7763866;32;38728;-82
2023/09/28 10:24:58;;;;;;;14.23;4.57;;;;;;;28.77;29.69;100323.09;7764010;32;37821;-83
2023/09/28 10:29:20;;;;;;;9.35;4.32;;;;;;;28.84;29.11;100330.81;7760850;32;40043;-82
2023/09/28 10:33:55;;;;;;;13.40;4.32;;;;;;;29.00;28.71;100331.38;7745796;32;39954;-85
2023/09/28 10:38:19;;;;;;;9.15;4.50;;;;;;;29.69;28.50;100326.41;7765118;32;37694;-68
2023/09/28 10:42:35;;;;;;;10.80;4.47;;;;;;;30.31;28.94;100320.03;7765363;32;36978;-70
2023/09/28 10:46:52;;;;;;;7.57;3.58;;;;;;;30.43;27.67;100316.88;7765099;32;40195;-84
2023/09/28 10:51:11;;;;;;;8.57;4.18;;;;;;;30.42;28.01;100312.44;7765032;32;39615;-82
2023/09/28 10:55:27;;;;;;;5.45;3.70;;;;;;;31.22;27.53;100317.16;7765285;32;38478;-83
2023/09/28 10:59:43;;;;;;;8.82;3.65;;;;;;;31.17;27.43;100311.91;7750460;32;37662;-85
2023/09/28 11:04:00;;;;;;;12.80;3.83;;;;;;;31.88;26.87;100299.03;7742552;32;39384;-86
2023/09/28 11:08:18;;;;;;;8.85;4.30;;;;;;;31.96;25.30;100302.63;7746705;32;40526;-85
2023/09/28 11:12:34;;;;;;;8.55;3.78;;;;;;;32.36;25.69;100290.06;7763477;32;38012;-85
2023/09/28 11:16:52;;;;;;;13.50;3.97;;;;;;;32.76;25.05;100289.91;7753086;32;37197;-85
2023/09/28 11:21:08;;;;;;;14.35;4.03;;;;;;;33.00;24.63;100290.19;7740767;32;39415;-70
2023/09/28 11:25:26;;;;;;;9.07;4.05;;;;;;;33.12;23.70;100284.03;7756901;32;40093;-71
2023/09/28 11:30:02;;;;;;;9.38;4.00;;;;;;;33.21;24.00;100287.22;7744125;32;38748;-69
2023/09/28 11:34:39;;;;;;;10.23;4.18;;;;;;;33.24;23.53;100289.22;7736107;32;37891;-70
2023/09/28 11:38:56;;;;;;;12.32;4.35;;;;;;;33.65;24.09;100284.81;7737379;32;39469;-85
2023/09/28 11:43:12;;;;;;;10.10;3.80;;;;;;;33.89;23.77;100276.53;7759182;32;40003;-83
2023/09/28 11:47:29;;;;;;;7.78;3.78;;;;;;;33.67;22.55;100274.75;7764014;32;38663;-81
2023/09/28 11:51:45;;;;;;;10.05;3.40;;;;;;;34.11;21.22;100266.59;7764095;32;36946;-69
2023/09/28 11:56:03;;;;;;;8.20;3.62;;;;;;;34.08;22.12;100263.81;7763973;32;39424;-83
2023/09/28 12:00:19;;;;;;;8.63;3.62;;;;;;;33.90;21.70;100259.16;7763799;32;40582;-83
2023/09/28 12:04:37;;;;;;;7.70;3.58;;;;;;;34.16;22.48;100257.63;7763507;32;37973;-85
2023/09/28 12:08:55;;;;;;;9.18;3.83;;;;;;;34.25;21.68;100257.16;7763606;32;37345;-84
2023/09/28 12:13:11;;;;;;;10.32;4.05;;;;;;;34.54;22.52;100251.13;7763370;32;39984;-83
2023/09/28 12:17:28;;;;;;;7.10;3.28;;;;;;;34.46;21.03;100249.59;7763488;32;39941;-84
2023/09/28 12:21:45;;;;;;;11.57;3.45;;;;;;;34.33;21.77;100247.34;7766672;32;38847;-84
2023/09/28 12:26:02;;;;;;;9.35;3.50;;;;;;;34.82;21.46;100251.97;7766667;32;37734;-84
2023/09/28 12:30:21;;;;;;;14.68;3.83;;;;;;;34.58;19.87;100249.03;7766721;32;39076;-83
2023/09/28 12:34:38;;;;;;;7.32;3.50;;;;;;;34.89;20.30;100237.69;7766676;32;40035;-84
2023/09/28 12:38:56;;;;;;;10.93;3.75;;;;;;;34.98;17.95;100235.12;7765330;32;37711;-84
2023/09/28 12:43:12;;;;;;;9.23;4.10;;;;;;;34.59;20.09;100236.50;7766513;32;37958;-84
2023/09/28 12:47:28;;;;;;;9.63;3.70;;;;;;;34.83;20.24;100228.09;7766385;32;40158;-84
2023/09/28 12:51:47;;;;;;;8.32;3.40;;;;;;;34.67;19.55;100232.34;7766277;32;39933;-84
2023/09/28 12:56:04;;;;;;;9.25;3.83;;;;;;;35.12;19.98;100229.22;7766527;32;38074;-84
2023/09/28 13:00:25;;;;;;;5.75;3.25;;;;;;;35.06;18.89;100225.28;7766381;32;37843;-83
2023/09/28 13:04:41;;;;;;;7.90;3.57;;;;;;;34.68;18.49;100228.25;7766710;32;39442;-84
2023/09/28 13:09:00;;;;;;;9.73;3.25;;;;;;;34.40;18.84;100224.63;7766413;32;39939;-85
2023/09/28 13:13:16;;;;;;;12.93;3.60;;;;;;;34.49;19.27;100214.81;7766350;32;37041;-84
2023/09/28 13:17:32;;;;;;;8.27;3.37;;;;;;;34.59;19.53;100208.19;7766231;32;37183;-84
2023/09/28 13:21:49;;;;;;;9.57;3.53;;;;;;;34.48;19.51;100211.19;7766308;32;39843;-83
2023/09/28 13:26:05;;;;;;;9.45;3.95;;;;;;;34.47;20.07;100214.44;7766009;32;39698;-83
2023/09/28 13:30:24;;;;;;;9.00;3.40;;;;;;;34.82;19.86;100198.97;7764964;32;38743;-83
2023/09/28 13:34:42;;;;;;;6.45;3.28;;;;;;;35.07;18.36;100207.06;7766121;32;37438;-84
2023/09/28 13:38:58;;;;;;;8.73;4.00;;;;;;;34.80;18.86;100204.25;7738875;32;39511;-84
2023/09/28 13:43:15;;;;;;;9.38;3.85;;;;;;;35.03;18.88;100205.50;7738332;32;40796;-86
2023/09/28 13:47:31;;;;;;;9.77;3.28;;;;;;;34.97;20.00;100206.00;7738247;32;37650;-87
2023/09/28 13:51:47;;;;;;;7.55;3.45;;;;;;;34.77;20.15;100205.94;7738483;32;36874;-84
2023/09/28 13:56:04;;;;;;;8.70;3.83;;;;;;;34.95;19.57;100207.66;7693567;32;40102;-84
2023/09/28 14:00:36;;;;;;;14.43;4.22;;;;;;;34.25;20.64;100200.56;7684201;32;39891;-84
2023/09/28 14:04:53;;;;;;;7.50;3.70;;;;;;;33.62;20.93;100198.84;7684596;32;38551;-85
2023/09/28 14:09:11;;;;;;;13.10;3.50;;;;;;;32.65;22.36;100198.84;7684571;32;37591;-85
2023/09/28 14:13:27;;;;;;;9.88;3.60;;;;;;;32.57;22.85;100196.03;7685119;32;39095;-86
2023/09/28 14:17:44;;;;;;;11.00;4.10;;;;;;;32.22;23.81;100201.88;7684209;32;40703;-86
2023/09/28 14:22:03;;;;;;;9.40;4.22;;;;;;;31.86;23.50;100193.53;7684609;32;38005;-85
2023/09/28 14:26:19;;;;;;;10.45;4.97;;;;;;;31.71;23.63;100192.78;7684256;32;36877;-85
2023/09/28 14:30:36;;;;;;;17.48;7.07;;;;;;;31.19;24.86;100191.22;7684296;32;39400;-85
2023/09/28 14:34:52;;;;;;;13.75;5.30;;;;;;;30.96;25.23;100191.66;7684557;32;40077;-85
2023/09/28 14:39:11;;;;;;;10.75;3.97;;;;;;;30.75;25.71;100183.94;7682856;32;37864;-85
2023/09/28 14:43:27;;;;;;;11.30;5.20;;;;;;;30.51;25.67;100191.12;7684238;32;36939;-85
2023/09/28 14:47:44;;;;;;;12.45;6.10;;;;;;;30.14;26.71;100189.41;7683851;32;40052;-84
2023/09/28 14:52:01;;;;;;;13.27;5.55;;;;;;;30.20;26.67;100193.44;7684411;32;40026;-84
2023/09/28 14:56:17;;;;;;;17.90;4.87;;;;;;;29.88;27.33;100199.72;7683917;32;37748;-84
2023/09/28 15:00:36;;;;;;;9.20;4.45;;;;;;;29.68;27.29;100190.75;7683716;32;37443;-84
2023/09/28 15:04:53;;;;;;;33.70;17.75;;;;;;;29.74;27.25;100194.00;7683220;32;38386;-84
2023/09/28 15:09:09;;;;;;;50.42;22.33;;;;;;;30.01;27.22;100196.56;7684007;32;40771;-84
2023/09/28 15:13:25;;;;;;;47.50;21.85;;;;;;;30.21;26.05;100183.00;7683828;32;37731;-84
2023/09/28 15:17:42;;;;;;;28.00;9.50;;;;;;;30.35;25.82;100194.31;7683664;32;37220;-84
2023/09/28 15:21:58;;;;;;;49.75;17.55;;;;;;;30.56;26.69;100187.94;7682957;32;40083;-84
2023/09/28 15:26:15;;;;;;;59.38;24.73;;;;;;;30.59;26.28;100181.50;7676365;32;194055;-84
2023/09/28 15:30:31;;;;;;;22.85;11.50;;;;;;;30.47;26.35;100182.69;7683104;32;37785;-84
2023/09/28 15:34:49;;;;;;;17.35;6.30;;;;;;;30.60;26.71;100177.50;7683477;32;37170;-84
2023/09/28 15:39:05;;;;;;;11.95;4.72;;;;;;;30.56;26.70;100189.94;7675714;32;39805;-83
2023/09/28 15:43:21;;;;;;;14.75;4.68;;;;;;;30.37;27.29;100197.53;7683408;32;40046;-83
2023/09/28 15:47:42;;;;;;;10.25;3.70;;;;;;;30.93;26.15;100194.44;7683069;32;38740;-83
2023/09/28 15:51:59;;;;;;;11.75;3.90;;;;;;;30.44;27.24;100197.56;7681985;32;36804;-84
2023/09/28 15:56:16;;;;;;;7.57;4.10;;;;;;;30.08;27.77;100203.03;7683202;32;39871;-84
2023/09/28 16:00:33;;;;;;;10.23;3.80;;;;;;;29.68;28.61;100199.19;7683035;32;40023;-84
2023/09/28 16:04:54;;;;;;;11.60;3.70;;;;;;;29.79;28.72;100202.09;7682713;32;37715;-83
2023/09/28 16:09:10;;;;;;;13.80;4.22;;;;;;;29.41;28.88;100215.47;7682931;32;37127;-84
2023/09/28 16:13:27;;;;;;;8.43;4.20;;;;;;;29.44;29.84;100211.84;7682680;32;40124;-87
2023/09/28 16:17:43;;;;;;;9.63;4.22;;;;;;;29.53;29.87;100212.34;7682610;32;40432;-84
2023/09/28 16:22:00;;;;;;;11.12;4.07;;;;;;;29.18;30.27;100205.28;7682083;32;38696;-83
2023/09/28 16:26:17;;;;;;;12.68;4.32;;;;;;;28.54;31.20;100202.59;7682473;32;38177;-83
2023/09/28 16:30:34;;;;;;;11.07;4.20;;;;;;;28.06;32.19;100211.66;7682480;32;39300;-82
2023/09/28 16:34:50;;;;;;;11.98;4.60;;;;;;;27.60;32.75;100211.81;7681893;32;40824;-83
2023/09/28 16:39:07;;;;;;;9.77;4.55;;;;;;;27.19;33.40;100217.13;7674414;32;37952;-83
2023/09/28 16:43:23;;;;;;;13.55;4.62;;;;;;;26.71;34.53;100223.06;7681837;32;36908;-83
2023/09/28 16:47:42;;;;;;;14.43;4.40;;;;;;;26.45;35.09;100218.16;7669690;32;40165;-82
2023/09/28 16:51:58;;;;;;;7.00;4.10;;;;;;;25.93;35.48;100222.25;7655329;32;40827;-83
2023/09/28 16:56:15;;;;;;;10.27;4.47;;;;;;;25.54;34.94;100230.53;7655074;32;38033;-83
2023/09/28 17:00:33;;;;;;;13.05;6.10;;;;;;;25.33;34.50;100231.62;7655256;32;37243;-84
2023/09/28 17:04:49;;;;;;;11.20;5.57;;;;;;;25.12;34.50;100229.09;7656452;32;39211;-83
2023/09/28 17:09:06;;;;;;;18.08;5.62;;;;;;;24.97;35.44;100236.28;7659103;32;40873;-83
2023/09/28 17:13:25;;;;;;;18.23;7.32;;;;;;;24.84;35.93;100243.94;7658770;32;37963;-83
2023/09/28 17:17:42;;;;;;;11.75;4.60;;;;;;;24.57;36.72;100245.56;7659214;32;36303;-84
2023/09/28 17:21:58;;;;;;;11.68;4.40;;;;;;;24.43;36.66;100248.75;7658852;32;39298;-83
2023/09/28 17:26:14;;;;;;;15.00;4.85;;;;;;;24.32;37.37;100256.81;7657142;32;39968;-83
2023/09/28 17:30:31;;;;;;;11.32;4.97;;;;;;;24.12;38.04;100255.00;7658763;32;38194;-83
2023/09/28 17:34:48;;;;;;;10.88;4.60;;;;;;;23.97;38.40;100267.69;7658555;32;37670;-82
2023/09/28 17:39:04;;;;;;;7.50;4.50;;;;;;;23.66;39.50;100265.47;7651139;32;38942;-81
2023/09/28 17:43:21;;;;;;;13.40;4.90;;;;;;;23.71;39.48;100279.16;7658966;32;39914;-84
2023/09/28 17:47:37;;;;;;;11.10;4.82;;;;;;;23.43;40.48;100271.50;7657534;32;38722;-84
2023/09/28 17:51:53;;;;;;;11.60;4.90;;;;;;;23.20;41.49;100280.31;7657735;32;37412;-82
2023/09/28 17:56:11;;;;;;;9.77;5.03;;;;;;;23.03;41.78;100277.69;7661521;32;39343;-82
2023/09/28 18:00:30;;;;;;;12.95;4.95;;;;;;;22.99;41.75;100283.12;7670676;32;39644;-83
2023/09/28 18:04:47;;;;;;;13.27;5.95;;;;;;;22.77;42.41;100280.75;7671808;32;38751;-83
2023/09/28 18:09:05;;;;;;;10.70;5.60;;;;;;;22.74;42.77;100292.56;7663839;32;38031;-82
2023/09/28 18:13:22;;;;;;;11.18;5.03;;;;;;;22.47;43.54;100290.03;7670537;32;39197;-82
2023/09/28 18:17:39;;;;;;;14.45;5.32;;;;;;;22.41;43.65;100287.78;7670703;32;40964;-82
2023/09/28 18:21:55;;;;;;;16.05;4.82;;;;;;;22.40;43.55;100295.28;7661515;32;38571;-83
2023/09/28 18:26:12;;;;;;;9.18;4.93;;;;;;;22.49;43.10;100298.00;7665891;32;38145;-82
2023/09/28 18:30:28;;;;;;;8.32;4.55;;;;;;;22.19;43.63;100294.47;7666825;32;39344;-83
2023/09/28 18:34:45;;;;;;;11.10;4.50;;;;;;;22.19;43.51;100294.47;7682451;32;40084;-81
2023/09/28 18:39:03;;;;;;;9.32;5.00;;;;;;;22.01;43.92;100300.12;7670539;32;38178;-81
2023/09/28 18:43:29;;;;;;;14.63;4.60;;;;;;;21.71;44.48;100310.41;7659611;32;37536;-81
2023/09/28 18:47:45;;;;;;;11.60;5.15;;;;;;;21.64;44.71;100308.16;7669386;32;39831;-81
2023/09/28 18:52:03;;;;;;;10.10;6.53;;;;;;;21.73;44.51;100303.41;7669903;32;40209;-81
2023/09/28 18:56:19;;;;;;;10.13;5.43;;;;;;;21.57;44.89;100308.69;7668528;32;37613;-81
2023/09/28 19:00:36;;;;;;;9.57;5.60;;;;;;;21.47;45.02;100314.63;7670749;32;37242;-81
2023/09/28 19:04:52;;;;;;;8.60;5.05;;;;;;;21.63;44.74;100323.19;7667952;32;39289;-83
2023/09/28 19:09:11;;;;;;;13.80;5.80;;;;;;;21.60;45.00;100321.09;7670930;32;39814;-81
2023/09/28 19:13:28;;;;;;;12.50;6.47;;;;;;;21.42;45.49;100333.34;7668446;32;38194;-80
2023/09/28 19:17:45;;;;;;;11.80;5.57;;;;;;;21.30;46.08;100326.56;7670004;32;37180;-81
2023/09/28 19:22:02;;;;;;;8.95;5.07;;;;;;;21.25;45.96;100332.28;7668271;32;39994;-83
2023/09/28 19:26:18;;;;;;;8.93;5.20;;;;;;;21.18;46.13;100331.97;7669313;32;40009;-83
2023/09/28 19:30:34;;;;;;;11.30;5.28;;;;;;;21.17;46.19;100339.47;7668470;32;38667;-82
2023/09/28 19:34:51;;;;;;;8.82;5.25;;;;;;;21.24;46.04;100333.41;7668059;32;37244;-81
2023/09/28 19:39:08;;;;;;;11.20;5.07;;;;;;;20.93;46.58;100337.22;7669824;32;39385;-80
2023/09/28 19:43:25;;;;;;;13.15;5.43;;;;;;;20.96;46.38;100344.91;7668807;32;41343;-81
2023/09/28 19:47:42;;;;;;;9.00;5.15;;;;;;;20.82;47.22;100345.06;7669146;32;36531;-79